Time;durP1;ratioP1;P1;durP2;ratioP2;P2;SDS_P1;SDS_P2;PMS_P1;PMS_P2;Temp;Humidity;BMP_temperature;BMP_pressure;BME280_temperature;BME280_humidity;BME280_pressure;Samples;Min_cycle;Max_cycle;Signal;HPM_P1;HPM_P2
2022/04/16 00:02:02;;;;;;;42.90;31.73;;;;;;;;;;5059079;28;20441;-61
2022/04/16 00:04:29;;;;;;;39.97;31.48;;;;;;;;;;5056996;28;20040;-62
2022/04/16 00:06:55;;;;;;;43.65;33.28;;;;;;;;;;5056759;28;20044;-62
2022/04/16 00:09:21;;;;;;;41.97;30.98;;;;;;;;;;5058924;28;20048;-64
2022/04/16 00:11:48;;;;;;;41.17;33.35;;;;;;;;;;5037228;28;20053;-62
2022/04/16 00:14:15;;;;;;;38.15;30.98;;;;;;;;;;5052988;28;20072;-62
2022/04/16 00:16:41;;;;;;;40.17;30.48;;;;;;;;;;5058334;28;20467;-62
2022/04/16 00:19:09;;;;;;;36.47;28.92;;;;;;;;;;5057854;28;20079;-63
2022/04/16 00:21:38;;;;;;;37.97;30.48;;;;;;;;;;5057293;28;20464;-63
2022/04/16 00:24:04;;;;;;;36.00;29.30;;;;;;;;;;5057694;28;20505;-63
2022/04/16 00:26:30;;;;;;;40.75;32.05;;;;;;;;;;5036473;28;20406;-62
2022/04/16 00:28:59;;;;;;;38.13;30.25;;;;;;;;;;5059520;28;20070;-63
2022/04/16 00:31:28;;;;;;;37.30;28.90;;;;;;;;;;5049324;28;20051;-62
2022/04/16 00:33:54;;;;;;;40.92;30.45;;;;;;;;;;5061415;28;20044;-62
2022/04/16 00:36:20;;;;;;;39.22;30.20;;;;;;;;;;5054756;28;20124;-62
2022/04/16 00:38:46;;;;;;;38.65;28.50;;;;;;;;;;5062879;28;20052;-62
2022/04/16 00:41:13;;;;;;;41.53;30.40;;;;;;;;;;5042995;28;20037;-64
2022/04/16 00:43:39;;;;;;;35.60;27.77;;;;;;;;;;5060372;28;20033;-61
2022/04/16 00:46:05;;;;;;;41.67;30.70;;;;;;;;;;5057338;28;20044;-63
2022/04/16 00:48:31;;;;;;;35.22;26.75;;;;;;;;;;5072621;28;20371;-62
2022/04/16 00:50:59;;;;;;;38.55;29.23;;;;;;;;;;5058289;28;20045;-63
2022/04/16 00:53:25;;;;;;;37.85;29.13;;;;;;;;;;5047832;28;20463;-63
2022/04/16 00:55:51;;;;;;;35.50;29.67;;;;;;;;;;5064070;28;20048;-63
2022/04/16 00:58:18;;;;;;;37.47;28.35;;;;;;;;;;5059218;28;20033;-63
2022/04/16 01:00:44;;;;;;;38.83;30.63;;;;;;;;;;5061058;28;20040;-64
2022/04/16 01:03:10;;;;;;;44.25;32.58;;;;;;;;;;5060153;28;20137;-63
2022/04/16 01:05:37;;;;;;;37.28;31.65;;;;;;;;;;5056686;28;21440;-63
2022/04/16 01:08:04;;;;;;;44.78;34.30;;;;;;;;;;5058110;28;20032;-63
2022/04/16 01:10:31;;;;;;;45.25;33.78;;;;;;;;;;5062336;28;20044;-63
2022/04/16 01:12:59;;;;;;;42.40;33.58;;;;;;;;;;5058330;28;20040;-62
2022/04/16 01:15:25;;;;;;;40.25;31.08;;;;;;;;;;5061453;28;20062;-63
2022/04/16 01:17:55;;;;;;;48.28;36.10;;;;;;;;;;5059077;28;20033;-63
2022/04/16 01:20:22;;;;;;;47.42;35.97;;;;;;;;;;5059703;28;20045;-63
2022/04/16 01:22:49;;;;;;;49.33;35.20;;;;;;;;;;5059501;28;20057;-64
2022/04/16 01:25:15;;;;;;;47.15;36.47;;;;;;;;;;5058111;28;20044;-63
2022/04/16 01:27:45;;;;;;;49.45;38.67;;;;;;;;;;5056547;28;20478;-64
2022/04/16 01:30:12;;;;;;;48.67;33.72;;;;;;;;;;5059875;28;20425;-63
2022/04/16 01:32:38;;;;;;;51.70;37.60;;;;;;;;;;5055414;28;20076;-64
2022/04/16 01:35:05;;;;;;;51.75;38.90;;;;;;;;;;5056386;28;20239;-65
2022/04/16 01:37:34;;;;;;;54.17;39.78;;;;;;;;;;5023847;28;20050;-64
2022/04/16 01:40:04;;;;;;;54.13;39.20;;;;;;;;;;5058427;28;20402;-62
2022/04/16 01:42:32;;;;;;;51.58;38.42;;;;;;;;;;5059476;28;20040;-63
2022/04/16 01:45:00;;;;;;;55.00;39.90;;;;;;;;;;5060210;28;20193;-62
2022/04/16 01:47:27;;;;;;;52.65;37.53;;;;;;;;;;5055715;28;20353;-64
2022/04/16 01:49:53;;;;;;;50.45;38.78;;;;;;;;;;5060567;28;20390;-64
2022/04/16 01:52:21;;;;;;;50.42;36.90;;;;;;;;;;5057816;28;20060;-63
2022/04/16 01:54:48;;;;;;;40.78;30.13;;;;;;;;;;5054415;28;20311;-65
2022/04/16 01:57:18;;;;;;;36.92;28.27;;;;;;;;;;5055874;28;20036;-62
2022/04/16 01:59:44;;;;;;;30.55;24.52;;;;;;;;;;5062414;28;20102;-62
2022/04/16 02:02:11;;;;;;;37.47;29.45;;;;;;;;;;5058945;28;20072;-62
2022/04/16 02:04:37;;;;;;;34.92;29.45;;;;;;;;;;5058714;28;20041;-64
2022/04/16 02:07:03;;;;;;;35.22;29.10;;;;;;;;;;5058333;28;20424;-63
2022/04/16 02:09:29;;;;;;;38.47;30.17;;;;;;;;;;5052436;28;20037;-64
2022/04/16 02:11:55;;;;;;;39.28;30.40;;;;;;;;;;5058003;28;20044;-61
2022/04/16 02:14:21;;;;;;;41.67;33.47;;;;;;;;;;5071775;28;20588;-63
2022/04/16 02:16:48;;;;;;;37.60;29.08;;;;;;;;;;5057643;28;20095;-63
2022/04/16 02:19:14;;;;;;;29.15;23.55;;;;;;;;;;5055346;28;20123;-63
2022/04/16 02:21:41;;;;;;;28.10;23.77;;;;;;;;;;5054835;28;20040;-63
2022/04/16 02:24:07;;;;;;;29.40;23.65;;;;;;;;;;5039265;28;20112;-62
2022/04/16 02:26:34;;;;;;;28.23;23.25;;;;;;;;;;5043252;28;20036;-62
2022/04/16 02:29:00;;;;;;;33.58;25.42;;;;;;;;;;5056361;28;20546;-63
2022/04/16 02:31:29;;;;;;;32.72;25.02;;;;;;;;;;5055289;28;20754;-62
2022/04/16 02:33:58;;;;;;;35.28;27.48;;;;;;;;;;5055340;28;20072;-63
2022/04/16 02:36:27;;;;;;;40.35;29.63;;;;;;;;;;5060788;28;20090;-62
2022/04/16 02:38:57;;;;;;;33.95;27.40;;;;;;;;;;5055081;28;20074;-62
2022/04/16 02:41:24;;;;;;;33.00;24.25;;;;;;;;;;5052452;28;20060;-62
2022/04/16 02:43:50;;;;;;;27.38;22.77;;;;;;;;;;5062213;28;20037;-60
2022/04/16 02:49:00;;;;;;;27.45;21.00;;;;;;;;;;5054752;28;20055;-61
2022/04/16 02:51:27;;;;;;;28.05;21.10;;;;;;;;;;5079084;28;20057;-62
2022/04/16 02:53:53;;;;;;;28.10;22.17;;;;;;;;;;5061167;28;20044;-61
2022/04/16 02:56:20;;;;;;;29.70;21.52;;;;;;;;;;5054876;28;20440;-62
2022/04/16 02:58:46;;;;;;;30.88;23.33;;;;;;;;;;5037248;28;20036;-61
2022/04/16 03:01:12;;;;;;;29.33;23.75;;;;;;;;;;5053960;28;20387;-61
2022/04/16 03:03:38;;;;;;;31.02;23.92;;;;;;;;;;5059416;28;20040;-61
2022/04/16 03:06:04;;;;;;;36.33;25.27;;;;;;;;;;5057777;28;20029;-62
2022/04/16 03:08:30;;;;;;;31.67;24.77;;;;;;;;;;5056206;28;20143;-61
2022/04/16 03:10:56;;;;;;;30.40;23.20;;;;;;;;;;5061628;28;20052;-62
2022/04/16 03:13:22;;;;;;;30.38;23.92;;;;;;;;;;5069391;28;20036;-61
2022/04/16 03:18:33;;;;;;;33.08;25.13;;;;;;;;;;5068389;28;20064;-62
2022/04/16 03:21:00;;;;;;;32.42;24.80;;;;;;;;;;5074254;28;20360;-61
2022/04/16 03:23:28;;;;;;;29.05;23.27;;;;;;;;;;5058372;28;20044;-62
2022/04/16 03:25:56;;;;;;;30.98;24.90;;;;;;;;;;5066283;28;20070;-61
2022/04/16 03:28:23;;;;;;;30.35;22.05;;;;;;;;;;5059106;28;20052;-62
2022/04/16 03:30:49;;;;;;;28.77;22.35;;;;;;;;;;5076768;28;20039;-61
2022/04/16 03:33:15;;;;;;;29.75;20.92;;;;;;;;;;5056607;28;20600;-60
2022/04/16 03:35:41;;;;;;;31.38;23.98;;;;;;;;;;5057585;28;20040;-61
2022/04/16 03:38:07;;;;;;;33.17;22.92;;;;;;;;;;5061375;28;20501;-61
2022/04/16 03:40:33;;;;;;;39.05;26.77;;;;;;;;;;5059504;28;20056;-62
2022/04/16 03:43:00;;;;;;;27.20;17.50;;;;;;;;;;5032136;28;20113;-61
2022/04/16 03:45:29;;;;;;;32.00;22.33;;;;;;;;;;5038098;28;20554;-61
2022/04/16 03:47:56;;;;;;;41.92;32.20;;;;;;;;;;5056288;28;20040;-62
2022/04/16 03:50:22;;;;;;;42.47;30.83;;;;;;;;;;5058939;28;20080;-61
2022/04/16 03:52:49;;;;;;;38.22;25.65;;;;;;;;;;5056831;28;20047;-62
2022/04/16 04:00:46;;;;;;;30.05;20.20;;;;;;;;;;5064394;28;20422;-61
2022/04/16 04:03:13;;;;;;;24.88;16.60;;;;;;;;;;5058018;28;20045;-62
2022/04/16 04:05:40;;;;;;;31.85;23.95;;;;;;;;;;5067395;28;20124;-61
2022/04/16 04:08:07;;;;;;;40.38;28.88;;;;;;;;;;5057757;28;20044;-61
2022/04/16 04:10:33;;;;;;;36.97;28.75;;;;;;;;;;5056001;28;20067;-63
2022/04/16 04:12:59;;;;;;;39.42;27.63;;;;;;;;;;5073832;28;20041;-63
2022/04/16 04:15:27;;;;;;;36.65;28.52;;;;;;;;;;5041443;28;20056;-64
2022/04/16 04:17:53;;;;;;;37.22;25.15;;;;;;;;;;5061082;28;20071;-63
2022/04/16 04:20:19;;;;;;;34.35;24.85;;;;;;;;;;5058865;28;20406;-63
2022/04/16 04:22:45;;;;;;;32.90;23.92;;;;;;;;;;5064892;28;20040;-63
2022/04/16 04:25:11;;;;;;;36.50;25.23;;;;;;;;;;5062689;28;20124;-62
2022/04/16 04:27:37;;;;;;;37.85;27.52;;;;;;;;;;5063644;28;20037;-63
2022/04/16 04:30:04;;;;;;;35.88;23.45;;;;;;;;;;5059849;28;20099;-65
2022/04/16 04:32:30;;;;;;;39.25;27.05;;;;;;;;;;5052875;28;20054;-62
2022/04/16 04:34:57;;;;;;;30.17;21.42;;;;;;;;;;5064125;28;20140;-63
2022/04/16 04:37:23;;;;;;;31.65;22.70;;;;;;;;;;5063740;28;20048;-62
2022/04/16 04:39:50;;;;;;;40.13;26.95;;;;;;;;;;5060139;28;20057;-63
2022/04/16 04:42:35;;;;;;;36.00;24.52;;;;;;;;;;5061112;28;20090;-63
2022/04/16 04:45:11;;;;;;;35.38;24.67;;;;;;;;;;5061537;28;20044;-63
2022/04/16 04:47:37;;;;;;;40.00;27.35;;;;;;;;;;5055989;28;20048;-62
2022/04/16 04:50:04;;;;;;;38.58;26.77;;;;;;;;;;5061949;28;20040;-63
2022/04/16 04:52:30;;;;;;;37.55;24.38;;;;;;;;;;5055309;28;20585;-63
2022/04/16 04:55:00;;;;;;;36.40;27.08;;;;;;;;;;5058469;28;20080;-63
2022/04/16 04:57:27;;;;;;;37.42;27.38;;;;;;;;;;5050652;28;20098;-62
2022/04/16 04:59:53;;;;;;;38.75;26.08;;;;;;;;;;5060961;28;20247;-62
2022/04/16 05:02:20;;;;;;;37.53;26.02;;;;;;;;;;5045997;28;20131;-62
2022/04/16 05:04:46;;;;;;;31.33;21.88;;;;;;;;;;5055911;28;20045;-62
2022/04/16 05:07:12;;;;;;;33.25;23.33;;;;;;;;;;5055074;28;20061;-63
2022/04/16 05:09:39;;;;;;;33.63;22.80;;;;;;;;;;5059029;28;20066;-62
2022/04/16 05:12:05;;;;;;;36.17;24.40;;;;;;;;;;5056604;28;20406;-61
2022/04/16 05:14:32;;;;;;;34.88;25.13;;;;;;;;;;5060186;28;20132;-62
2022/04/16 05:16:58;;;;;;;32.78;24.70;;;;;;;;;;5056900;28;20052;-62
2022/04/16 05:19:24;;;;;;;34.22;24.83;;;;;;;;;;5055521;28;20255;-62
2022/04/16 05:21:50;;;;;;;30.20;20.70;;;;;;;;;;5072628;28;20444;-62
2022/04/16 05:24:16;;;;;;;29.52;20.98;;;;;;;;;;5056017;28;20040;-63
2022/04/16 05:26:43;;;;;;;34.42;21.98;;;;;;;;;;5062875;28;20159;-62
2022/04/16 05:29:09;;;;;;;30.13;19.55;;;;;;;;;;5062537;28;20032;-62
2022/04/16 05:31:36;;;;;;;30.30;19.92;;;;;;;;;;5063780;28;20090;-62
2022/04/16 05:34:21;;;;;;;28.08;18.90;;;;;;;;;;5060044;28;20371;-63
2022/04/16 05:36:48;;;;;;;30.10;18.85;;;;;;;;;;5060268;28;20045;-63
2022/04/16 05:39:15;;;;;;;25.35;16.27;;;;;;;;;;5057820;28;20640;-63
2022/04/16 05:41:41;;;;;;;21.77;14.65;;;;;;;;;;5054961;28;20036;-62
2022/04/16 05:44:07;;;;;;;23.38;16.08;;;;;;;;;;5056401;28;20041;-62
2022/04/16 05:46:33;;;;;;;22.92;15.75;;;;;;;;;;5058442;28;20115;-62
2022/04/16 05:48:59;;;;;;;23.20;15.10;;;;;;;;;;5074493;28;20482;-62
2022/04/16 05:51:26;;;;;;;19.65;13.52;;;;;;;;;;5073261;28;20574;-63
2022/04/16 05:53:52;;;;;;;20.20;14.30;;;;;;;;;;5059975;28;20050;-62
2022/04/16 05:56:19;;;;;;;19.70;13.98;;;;;;;;;;5052611;28;20133;-62
2022/04/16 05:58:45;;;;;;;19.80;13.13;;;;;;;;;;5038692;28;20026;-61
2022/04/16 06:01:11;;;;;;;19.33;12.82;;;;;;;;;;5044533;28;20036;-63
2022/04/16 06:03:39;;;;;;;17.15;12.45;;;;;;;;;;5062211;28;20041;-62
2022/04/16 06:06:06;;;;;;;16.55;12.07;;;;;;;;;;5052485;28;20174;-63
2022/04/16 06:08:32;;;;;;;17.52;12.88;;;;;;;;;;5058492;28;20094;-63
2022/04/16 06:10:58;;;;;;;16.92;11.82;;;;;;;;;;5063520;28;20063;-63
2022/04/16 06:13:25;;;;;;;17.15;10.52;;;;;;;;;;5058360;28;20037;-64
2022/04/16 06:15:51;;;;;;;13.35;8.82;;;;;;;;;;5052129;28;20041;-62
2022/04/16 06:18:17;;;;;;;14.68;10.07;;;;;;;;;;5056685;28;20037;-63
2022/04/16 06:20:44;;;;;;;13.18;8.85;;;;;;;;;;5061827;28;20033;-63
2022/04/16 06:23:10;;;;;;;12.90;8.60;;;;;;;;;;5056539;28;20037;-63
2022/04/16 06:25:36;;;;;;;11.70;8.23;;;;;;;;;;5049529;28;20037;-62
2022/04/16 06:28:02;;;;;;;14.10;7.68;;;;;;;;;;5059545;28;20036;-64
2022/04/16 06:30:28;;;;;;;7.28;4.95;;;;;;;;;;5057725;28;20622;-63
2022/04/16 06:32:55;;;;;;;10.70;6.25;;;;;;;;;;5056074;28;20102;-62
2022/04/16 06:35:21;;;;;;;10.52;7.32;;;;;;;;;;5054777;28;20127;-62
2022/04/16 06:37:47;;;;;;;11.63;7.93;;;;;;;;;;5056764;28;20533;-62
2022/04/16 06:40:13;;;;;;;10.65;6.78;;;;;;;;;;5055808;28;20540;-63
2022/04/16 06:42:40;;;;;;;11.77;7.13;;;;;;;;;;5059081;28;20036;-62
2022/04/16 06:45:06;;;;;;;11.43;6.63;;;;;;;;;;5057254;28;20477;-64
2022/04/16 06:47:32;;;;;;;8.70;5.43;;;;;;;;;;5055345;28;20068;-63
2022/04/16 06:49:58;;;;;;;9.23;5.80;;;;;;;;;;5055586;28;20044;-63
2022/04/16 06:52:25;;;;;;;7.88;5.85;;;;;;;;;;5037908;28;20040;-63
2022/04/16 06:54:51;;;;;;;9.32;5.57;;;;;;;;;;5074072;28;20454;-63
2022/04/16 06:57:17;;;;;;;9.23;5.80;;;;;;;;;;5058546;28;20040;-62
2022/04/16 06:59:43;;;;;;;8.38;5.68;;;;;;;;;;5058578;28;20037;-63
2022/04/16 07:02:10;;;;;;;7.63;5.07;;;;;;;;;;5036989;28;20041;-63
2022/04/16 07:04:36;;;;;;;8.52;5.03;;;;;;;;;;5054532;28;20373;-64
2022/04/16 07:07:02;;;;;;;8.77;4.78;;;;;;;;;;5036653;28;20490;-62
2022/04/16 07:09:28;;;;;;;8.38;4.75;;;;;;;;;;5052548;28;20112;-63
2022/04/16 07:11:54;;;;;;;7.05;4.50;;;;;;;;;;5058117;28;20524;-63
2022/04/16 07:14:21;;;;;;;7.07;4.15;;;;;;;;;;5061970;28;20052;-62
2022/04/16 07:16:47;;;;;;;6.82;3.83;;;;;;;;;;5038602;28;20050;-64
2022/04/16 07:19:13;;;;;;;6.28;3.80;;;;;;;;;;5054871;28;20572;-63
2022/04/16 07:21:39;;;;;;;6.38;4.43;;;;;;;;;;5057585;28;20040;-63
2022/04/16 07:24:05;;;;;;;6.50;3.65;;;;;;;;;;5056979;28;20036;-63
2022/04/16 07:26:31;;;;;;;6.18;3.42;;;;;;;;;;5052481;28;20386;-64
2022/04/16 07:28:58;;;;;;;5.75;4.03;;;;;;;;;;5057364;28;20040;-63
2022/04/16 07:31:24;;;;;;;4.85;3.53;;;;;;;;;;5057861;28;20042;-63
2022/04/16 07:33:50;;;;;;;3.67;2.05;;;;;;;;;;5057902;28;20041;-63
2022/04/16 07:36:16;;;;;;;4.80;3.03;;;;;;;;;;5068715;28;20041;-63
2022/04/16 07:38:43;;;;;;;4.47;3.13;;;;;;;;;;5056759;28;20036;-64
2022/04/16 07:41:09;;;;;;;4.93;3.05;;;;;;;;;;5048163;28;20041;-63
2022/04/16 07:43:36;;;;;;;4.70;2.88;;;;;;;;;;5047268;28;20277;-63
2022/04/16 07:46:02;;;;;;;4.65;2.78;;;;;;;;;;5048041;28;20110;-64
2022/04/16 07:48:28;;;;;;;3.70;1.90;;;;;;;;;;5048987;28;20041;-64
2022/04/16 07:50:54;;;;;;;3.90;2.08;;;;;;;;;;5048868;28;20127;-62
2022/04/16 07:53:20;;;;;;;2.72;1.50;;;;;;;;;;5047704;28;20037;-63
2022/04/16 07:55:47;;;;;;;1.10;0.50;;;;;;;;;;5047036;28;20044;-63
2022/04/16 07:58:13;;;;;;;3.85;1.77;;;;;;;;;;5049411;28;20090;-62
2022/04/16 08:00:39;;;;;;;3.78;1.77;;;;;;;;;;5049242;28;20044;-62
2022/04/16 08:03:05;;;;;;;3.55;1.75;;;;;;;;;;5047635;28;20059;-63
2022/04/16 08:05:32;;;;;;;3.60;1.92;;;;;;;;;;5047374;28;20268;-62
2022/04/16 08:07:58;;;;;;;4.20;1.70;;;;;;;;;;5048988;28;20524;-62
2022/04/16 08:10:24;;;;;;;4.10;1.77;;;;;;;;;;5064211;28;20167;-63
2022/04/16 08:12:50;;;;;;;5.03;1.70;;;;;;;;;;5049163;28;20135;-63
2022/04/16 08:15:16;;;;;;;3.42;1.70;;;;;;;;;;5064071;28;20049;-63
2022/04/16 08:17:43;;;;;;;2.42;1.25;;;;;;;;;;5047173;28;20045;-62
2022/04/16 08:20:09;;;;;;;2.33;1.65;;;;;;;;;;5048839;28;20399;-62
2022/04/16 08:22:35;;;;;;;2.80;1.15;;;;;;;;;;5081136;28;20628;-63
2022/04/16 08:27:47;;;;;;;3.10;1.08;;;;;;;;;;5061150;28;20502;-62
2022/04/16 08:30:14;;;;;;;4.68;1.35;;;;;;;;;;5048672;28;20041;-62
2022/04/16 08:32:41;;;;;;;2.80;0.95;;;;;;;;;;5064653;28;20562;-61
2022/04/16 08:35:08;;;;;;;3.65;1.00;;;;;;;;;;5048506;28;20498;-61
2022/04/16 08:37:34;;;;;;;2.72;0.60;;;;;;;;;;5048536;28;20049;-62
2022/04/16 08:40:00;;;;;;;2.75;0.70;;;;;;;;;;5049824;28;20045;-61
2022/04/16 08:42:26;;;;;;;1.98;0.80;;;;;;;;;;5048920;28;20049;-61
2022/04/16 08:44:52;;;;;;;2.55;0.73;;;;;;;;;;5048757;28;20041;-60
2022/04/16 08:47:18;;;;;;;2.63;0.73;;;;;;;;;;5049829;28;20609;-63
2022/04/16 08:49:45;;;;;;;1.50;0.50;;;;;;;;;;5063462;28;20041;-64
2022/04/16 08:52:11;;;;;;;1.77;0.60;;;;;;;;;;5063887;28;20095;-63
2022/04/16 08:54:39;;;;;;;2.08;0.60;;;;;;;;;;5047528;28;20061;-63
2022/04/16 08:57:05;;;;;;;3.38;0.90;;;;;;;;;;5047061;28;20048;-63
2022/04/16 08:59:31;;;;;;;2.45;0.50;;;;;;;;;;5052053;28;20368;-64
2022/04/16 09:02:01;;;;;;;1.88;0.60;;;;;;;;;;5051934;28;20037;-62
2022/04/16 09:04:31;;;;;;;2.30;0.63;;;;;;;;;;5067501;28;20473;-62
2022/04/16 09:07:01;;;;;;;2.08;0.70;;;;;;;;;;5067411;28;20466;-63
2022/04/16 09:09:28;;;;;;;2.50;0.80;;;;;;;;;;5052211;28;20052;-62
2022/04/16 09:11:55;;;;;;;1.42;0.70;;;;;;;;;;5067351;28;20453;-63
2022/04/16 09:14:34;;;;;;;1.88;0.70;;;;;;;;;;5050592;28;20044;-62
2022/04/16 09:17:00;;;;;;;2.10;0.65;;;;;;;;;;5050949;28;20083;-63
2022/04/16 09:19:29;;;;;;;1.60;0.50;;;;;;;;;;5053023;28;20055;-61
2022/04/16 09:21:55;;;;;;;1.80;0.60;;;;;;;;;;5053135;28;20132;-61
2022/04/16 09:24:21;;;;;;;2.53;0.60;;;;;;;;;;5053279;28;20475;-62
2022/04/16 09:26:49;;;;;;;2.03;0.73;;;;;;;;;;5051380;28;20041;-62
2022/04/16 09:29:16;;;;;;;1.05;0.45;;;;;;;;;;5051686;28;20068;-61
2022/04/16 09:31:45;;;;;;;1.30;0.45;;;;;;;;;;5068243;28;20061;-62
2022/04/16 09:34:19;;;;;;;1.88;0.57;;;;;;;;;;5068106;28;20045;-61
2022/04/16 09:36:45;;;;;;;1.40;0.40;;;;;;;;;;5052428;28;20087;-62
2022/04/16 09:39:11;;;;;;;2.55;0.50;;;;;;;;;;5084674;28;20041;-61
2022/04/16 09:41:39;;;;;;;2.63;0.40;;;;;;;;;;5052162;28;20127;-62
2022/04/16 09:44:16;;;;;;;1.00;0.30;;;;;;;;;;5052489;28;20518;-61
2022/04/16 09:46:44;;;;;;;1.60;0.35;;;;;;;;;;5084471;28;20033;-61
2022/04/16 09:49:11;;;;;;;1.92;0.40;;;;;;;;;;5052249;28;20041;-61
2022/04/16 09:51:37;;;;;;;0.98;0.35;;;;;;;;;;5051131;28;20088;-61
2022/04/16 09:54:04;;;;;;;1.38;0.40;;;;;;;;;;5050942;28;20045;-62
2022/04/16 09:56:32;;;;;;;2.63;0.45;;;;;;;;;;5050688;28;20044;-61
2022/04/16 09:58:59;;;;;;;2.17;0.98;;;;;;;;;;5083791;28;20418;-63
2022/04/16 10:01:25;;;;;;;4.47;1.30;;;;;;;;;;5050765;28;20055;-63
2022/04/16 10:03:52;;;;;;;4.32;1.90;;;;;;;;;;5049541;28;20040;-63
2022/04/16 10:06:20;;;;;;;3.28;1.30;;;;;;;;;;5050894;28;20147;-63
2022/04/16 10:08:47;;;;;;;2.80;1.25;;;;;;;;;;5049258;28;20049;-64
2022/04/16 10:11:20;;;;;;;4.22;1.95;;;;;;;;;;5049322;28;20294;-61
2022/04/16 10:13:51;;;;;;;2.90;0.80;;;;;;;;;;5083159;28;20063;-63
2022/04/16 10:16:21;;;;;;;2.05;0.50;;;;;;;;;;5050654;28;20045;-62
2022/04/16 10:18:49;;;;;;;1.65;0.40;;;;;;;;;;5049099;28;20044;-63
2022/04/16 10:21:16;;;;;;;3.42;1.27;;;;;;;;;;5082983;28;20430;-62
2022/04/16 10:23:42;;;;;;;3.20;1.10;;;;;;;;;;5082476;28;20090;-64
2022/04/16 10:26:10;;;;;;;1.55;0.80;;;;;;;;;;5065368;28;20071;-62
2022/04/16 10:28:38;;;;;;;4.05;1.27;;;;;;;;;;5049023;28;20076;-63
2022/04/16 10:31:08;;;;;;;3.10;1.38;;;;;;;;;;5049045;28;20124;-62
2022/04/16 10:33:34;;;;;;;1.90;0.93;;;;;;;;;;5048582;28;20078;-63
2022/04/16 10:36:10;;;;;;;2.47;1.02;;;;;;;;;;5048687;28;20049;-63
2022/04/16 10:38:41;;;;;;;2.33;0.70;;;;;;;;;;5050280;28;20045;-62
2022/04/16 10:41:11;;;;;;;2.63;0.70;;;;;;;;;;5050194;28;20049;-62
2022/04/16 10:43:37;;;;;;;1.77;0.40;;;;;;;;;;5050003;28;20037;-62
2022/04/16 10:46:10;;;;;;;1.48;0.40;;;;;;;;;;5049676;28;20605;-63
2022/04/16 10:48:37;;;;;;;1.35;0.45;;;;;;;;;;5051552;28;20495;-62
2022/04/16 10:51:04;;;;;;;2.97;0.52;;;;;;;;;;5055846;28;20102;-64
2022/04/16 10:53:32;;;;;;;1.65;0.50;;;;;;;;;;5077552;28;20121;-63
2022/04/16 10:56:07;;;;;;;2.20;0.55;;;;;;;;;;5057563;28;20039;-64
2022/04/16 10:58:33;;;;;;;1.90;0.70;;;;;;;;;;5074252;28;20478;-64
2022/04/16 11:01:26;;;;;;;2.85;0.68;;;;;;;;;;5041363;28;20040;-63
2022/04/16 11:03:54;;;;;;;2.85;0.80;;;;;;;;;;5048418;28;20064;-63
2022/04/16 11:06:20;;;;;;;2.03;0.50;;;;;;;;;;5057614;28;20060;-63
2022/04/16 11:08:47;;;;;;;1.30;0.43;;;;;;;;;;5054147;28;20041;-63
2022/04/16 11:11:14;;;;;;;1.30;0.55;;;;;;;;;;5059190;28;20083;-63
2022/04/16 11:13:40;;;;;;;2.45;0.90;;;;;;;;;;5055081;28;20101;-63
2022/04/16 11:16:07;;;;;;;3.17;1.42;;;;;;;;;;5058325;28;20033;-64
2022/04/16 11:18:43;;;;;;;3.78;2.13;;;;;;;;;;5054613;28;20048;-62
2022/04/16 11:21:13;;;;;;;6.78;4.03;;;;;;;;;;5057715;28;20040;-62
2022/04/16 11:23:40;;;;;;;10.30;5.13;;;;;;;;;;5050853;28;20122;-63
2022/04/16 11:34:26;;;;;;;6.20;3.50;;;;;;;;;;5038789;28;20494;-63
2022/04/16 11:36:53;;;;;;;5.43;2.47;;;;;;;;;;5051652;28;20442;-65
2022/04/16 11:39:20;;;;;;;5.90;2.70;;;;;;;;;;5061145;28;20098;-63
2022/04/16 11:41:53;;;;;;;5.38;2.45;;;;;;;;;;5057544;28;20043;-64
2022/04/16 11:44:19;;;;;;;;;;;;;;;;;;5055611;28;20056;-64
2022/04/16 11:46:46;;;;;;;3.45;1.50;;;;;;;;;;5040317;28;19917;-63
2022/04/16 11:49:13;;;;;;;2.92;1.17;;;;;;;;;;5062123;28;20037;-64
2022/04/16 11:51:39;;;;;;;2.05;0.90;;;;;;;;;;5060850;28;20041;-63
2022/04/16 11:54:06;;;;;;;1.52;0.60;;;;;;;;;;5051476;28;20135;-63
2022/04/16 11:56:32;;;;;;;2.30;1.10;;;;;;;;;;5057051;28;20044;-63
2022/04/16 11:58:58;;;;;;;2.60;1.13;;;;;;;;;;5051650;28;20044;-62
2022/04/16 12:01:24;;;;;;;3.28;1.23;;;;;;;;;;5067943;28;20036;-63
2022/04/16 12:03:56;;;;;;;3.67;1.77;;;;;;;;;;5068691;28;20435;-62
2022/04/16 12:06:22;;;;;;;2.50;1.65;;;;;;;;;;5068950;28;20062;-62
2022/04/16 12:08:50;;;;;;;3.20;1.77;;;;;;;;;;5052152;28;20566;-62
2022/04/16 12:11:19;;;;;;;2.22;1.08;;;;;;;;;;5048805;28;20059;-63
2022/04/16 12:13:45;;;;;;;3.95;1.05;;;;;;;;;;5048626;28;20767;-62
2022/04/16 12:16:12;;;;;;;3.42;1.73;;;;;;;;;;5048946;28;20102;-62
2022/04/16 12:18:46;;;;;;;3.15;1.20;;;;;;;;;;5047339;28;20052;-63
2022/04/16 12:21:17;;;;;;;2.22;1.20;;;;;;;;;;5048588;28;20045;-61
2022/04/16 12:23:44;;;;;;;2.28;0.85;;;;;;;;;;5054093;28;20041;-61
2022/04/16 12:26:17;;;;;;;1.80;0.80;;;;;;;;;;5055319;28;20037;-64
2022/04/16 12:28:46;;;;;;;1.38;0.50;;;;;;;;;;5049792;28;20115;-62
2022/04/16 12:31:12;;;;;;;5.70;0.80;;;;;;;;;;5051618;28;20521;-62
2022/04/16 12:33:38;;;;;;;1.67;0.50;;;;;;;;;;5059968;28;20044;-62
2022/04/16 12:36:06;;;;;;;1.70;0.70;;;;;;;;;;5058549;28;20040;-63
2022/04/16 12:38:32;;;;;;;1.63;0.80;;;;;;;;;;5057272;28;20076;-63
2022/04/16 12:41:09;;;;;;;1.38;0.80;;;;;;;;;;5067387;28;20102;-62
2022/04/16 12:43:35;;;;;;;2.55;0.68;;;;;;;;;;5058948;28;20368;-61
2022/04/16 12:46:01;;;;;;;2.47;0.80;;;;;;;;;;5057790;28;20049;-62
2022/04/16 12:48:28;;;;;;;1.73;0.63;;;;;;;;;;5059266;28;20486;-62
2022/04/16 12:50:54;;;;;;;2.45;0.80;;;;;;;;;;5060762;28;20037;-62
2022/04/16 12:53:20;;;;;;;2.63;1.00;;;;;;;;;;5061629;28;20561;-63
2022/04/16 12:55:46;;;;;;;2.08;0.68;;;;;;;;;;5057092;28;20411;-62
2022/04/16 12:58:12;;;;;;;2.47;0.70;;;;;;;;;;5065194;28;20041;-63
2022/04/16 13:00:39;;;;;;;3.28;0.68;;;;;;;;;;5059568;28;20462;-63
2022/04/16 13:03:06;;;;;;;1.98;0.70;;;;;;;;;;5055367;28;20047;-62
2022/04/16 13:05:33;;;;;;;2.55;1.00;;;;;;;;;;5061395;28;20068;-62
2022/04/16 13:08:00;;;;;;;2.25;0.82;;;;;;;;;;5043189;28;20396;-64
2022/04/16 13:10:26;;;;;;;2.17;0.90;;;;;;;;;;5056585;28;20056;-61
2022/04/16 13:12:52;;;;;;;2.05;0.77;;;;;;;;;;5063588;28;20052;-61
2022/04/16 13:15:19;;;;;;;2.60;0.75;;;;;;;;;;5058223;28;20585;-62
2022/04/16 13:17:45;;;;;;;2.13;0.60;;;;;;;;;;5043749;28;20506;-62
2022/04/16 13:20:12;;;;;;;1.10;0.47;;;;;;;;;;5058953;28;20078;-63
2022/04/16 13:22:40;;;;;;;1.00;0.50;;;;;;;;;;5058490;28;20037;-62
2022/04/16 13:25:07;;;;;;;2.55;1.02;;;;;;;;;;5052993;28;20040;-63
2022/04/16 13:27:33;;;;;;;2.78;1.15;;;;;;;;;;5049931;28;20079;-62
2022/04/16 13:29:59;;;;;;;1.58;0.50;;;;;;;;;;5050210;28;20153;-62
2022/04/16 13:32:25;;;;;;;1.13;0.40;;;;;;;;;;5082508;28;20482;-63
2022/04/16 13:34:52;;;;;;;2.00;0.50;;;;;;;;;;5062015;28;20375;-62
2022/04/16 13:37:18;;;;;;;1.48;0.57;;;;;;;;;;5041453;28;20056;-61
2022/04/16 13:42:28;;;;;;;1.25;0.35;;;;;;;;;;5062106;28;20132;-62
2022/04/16 13:44:55;;;;;;;0.80;0.30;;;;;;;;;;5052809;28;20037;-62
2022/04/16 13:47:21;;;;;;;1.98;0.40;;;;;;;;;;5046895;28;20144;-63
2022/04/16 13:49:48;;;;;;;1.10;0.30;;;;;;;;;;5040005;28;20449;-63
2022/04/16 13:52:14;;;;;;;1.10;0.30;;;;;;;;;;5056865;28;20049;-62
2022/04/16 13:54:41;;;;;;;1.25;0.40;;;;;;;;;;5056461;28;20067;-62
2022/04/16 13:57:09;;;;;;;3.00;0.40;;;;;;;;;;5061628;28;20097;-62
2022/04/16 13:59:36;;;;;;;1.40;0.30;;;;;;;;;;5060444;28;20040;-61
2022/04/16 14:02:02;;;;;;;2.17;0.40;;;;;;;;;;5056771;28;20572;-62
2022/04/16 14:05:42;;;;;;;1.30;0.40;;;;;;;;;;5040774;28;20124;-63
2022/04/16 14:07:14;;;;;;;2.35;0.50;;;;;;;;;;5056886;28;20055;-63
2022/04/16 14:09:40;;;;;;;1.33;0.73;;;;;;;;;;5060355;28;20119;-62
2022/04/16 14:12:06;;;;;;;2.40;0.50;;;;;;;;;;5054960;28;20041;-62
2022/04/16 14:14:33;;;;;;;0.93;0.40;;;;;;;;;;5052062;28;20053;-62
2022/04/16 14:16:59;;;;;;;1.08;0.45;;;;;;;;;;5048810;28;20111;-63
2022/04/16 14:19:25;;;;;;;1.85;0.70;;;;;;;;;;5049503;28;20113;-62
2022/04/16 14:21:53;;;;;;;1.40;0.47;;;;;;;;;;5058315;28;20042;-62
2022/04/16 14:24:21;;;;;;;1.17;0.30;;;;;;;;;;5064433;28;20110;-63
2022/04/16 14:26:47;;;;;;;1.27;0.38;;;;;;;;;;5060296;28;20041;-61
2022/04/16 14:29:14;;;;;;;1.08;0.40;;;;;;;;;;5055001;28;20041;-62
2022/04/16 14:31:42;;;;;;;2.45;0.63;;;;;;;;;;5053322;28;20550;-62
2022/04/16 14:34:08;;;;;;;2.40;0.50;;;;;;;;;;5057195;28;20170;-63
2022/04/16 14:36:34;;;;;;;2.13;0.50;;;;;;;;;;5063605;28;20533;-62
2022/04/16 14:39:01;;;;;;;1.27;0.50;;;;;;;;;;5050360;28;20289;-62
2022/04/16 14:41:27;;;;;;;1.90;0.57;;;;;;;;;;5051537;28;20057;-62
2022/04/16 14:43:58;;;;;;;1.92;0.50;;;;;;;;;;5048976;28;20036;-62
2022/04/16 14:46:24;;;;;;;2.75;0.50;;;;;;;;;;5056466;28;20470;-62
2022/04/16 14:48:53;;;;;;;2.13;0.50;;;;;;;;;;5057283;28;20058;-62
2022/04/16 14:51:24;;;;;;;1.95;0.60;;;;;;;;;;5055630;28;20403;-62
2022/04/16 14:53:50;;;;;;;2.08;0.65;;;;;;;;;;5056633;28;20458;-62
2022/04/16 14:56:18;;;;;;;3.42;1.02;;;;;;;;;;5055585;28;20553;-63